Time;durP1;ratioP1;P1;durP2;ratioP2;P2;SDS_P1;SDS_P2;PMS_P1;PMS_P2;Temp;Humidity;BMP_temperature;BMP_pressure;BME280_temperature;BME280_humidity;BME280_pressure;Samples;Min_cycle;Max_cycle;Signal;HPM_P1;HPM_P2
2024/01/20 00:01:52;;;;;;;31.58;13.88;;;-4.20;78.50;;;;;;5045774;28;20041;-61
2024/01/20 00:04:18;;;;;;;29.10;15.05;;;-4.20;78.10;;;;;;5049433;28;20404;-62
2024/01/20 00:06:43;;;;;;;37.08;17.45;;;-4.30;78.00;;;;;;5050520;28;20125;-62
2024/01/20 00:09:09;;;;;;;44.13;19.55;;;-4.30;77.80;;;;;;5049737;28;20488;-61
2024/01/20 00:11:34;;;;;;;44.15;20.23;;;-4.30;77.70;;;;;;5048360;28;20037;-62
2024/01/20 00:14:00;;;;;;;45.22;21.05;;;-4.30;77.60;;;;;;5050327;28;20041;-60
2024/01/20 00:16:25;;;;;;;42.97;20.02;;;-4.30;77.60;;;;;;5048101;28;20470;-61
2024/01/20 00:18:51;;;;;;;46.53;20.65;;;-4.40;77.60;;;;;;5046320;28;20033;-62
2024/01/20 00:21:17;;;;;;;39.90;19.20;;;-4.40;77.60;;;;;;5054177;28;20082;-62
2024/01/20 00:23:42;;;;;;;37.00;17.98;;;-4.40;77.80;;;;;;5049525;28;20075;-62
2024/01/20 00:26:08;;;;;;;38.97;18.77;;;-4.50;78.00;;;;;;5053077;28;20083;-61
2024/01/20 00:28:33;;;;;;;43.47;18.17;;;-4.50;78.30;;;;;;5050031;28;20318;-61
2024/01/20 00:30:59;;;;;;;40.00;17.88;;;-4.50;78.20;;;;;;5049600;28;20074;-60
2024/01/20 00:33:25;;;;;;;35.25;17.88;;;-4.50;77.80;;;;;;5048754;28;20044;-61
2024/01/20 00:35:51;;;;;;;35.55;17.30;;;-4.50;77.60;;;;;;5048326;28;20531;-62
2024/01/20 00:38:17;;;;;;;35.60;17.80;;;-4.50;77.50;;;;;;5052642;28;20167;-61
2024/01/20 00:40:42;;;;;;;37.45;18.13;;;-4.60;77.30;;;;;;5048753;28;20094;-62
2024/01/20 00:43:08;;;;;;;38.60;18.35;;;-4.60;77.50;;;;;;5048352;28;20114;-61
2024/01/20 00:45:34;;;;;;;36.83;18.48;;;-4.70;77.70;;;;;;5050520;28;20033;-62
2024/01/20 00:47:59;;;;;;;38.63;17.85;;;-4.70;77.90;;;;;;5045949;28;20033;-62
2024/01/20 00:50:25;;;;;;;31.50;16.52;;;-4.70;77.90;;;;;;5048565;28;20033;-62
2024/01/20 00:52:51;;;;;;;37.40;18.00;;;-4.70;78.10;;;;;;5048242;28;20408;-61
2024/01/20 00:55:17;;;;;;;36.28;17.33;;;-4.70;78.10;;;;;;5046931;28;20491;-62
2024/01/20 00:57:43;;;;;;;36.53;18.02;;;-4.70;78.20;;;;;;5049899;28;20116;-62
2024/01/20 01:00:09;;;;;;;38.70;18.38;;;-4.70;78.30;;;;;;5044541;28;20112;-61
2024/01/20 01:02:36;;;;;;;36.42;17.88;;;-4.70;78.00;;;;;;5049567;28;20577;-62
2024/01/20 01:05:02;;;;;;;41.33;17.45;;;-4.70;77.70;;;;;;5046191;28;20044;-62
2024/01/20 01:07:27;;;;;;;37.13;17.45;;;-4.70;77.60;;;;;;5048512;28;20087;-61
2024/01/20 01:09:53;;;;;;;29.58;15.75;;;-4.80;77.40;;;;;;5041767;28;20029;-61
2024/01/20 01:12:18;;;;;;;32.95;15.02;;;-4.80;78.10;;;;;;5045086;28;20037;-62
2024/01/20 01:14:44;;;;;;;34.20;14.75;;;-4.90;77.30;;;;;;5047729;28;20029;-61
2024/01/20 01:17:10;;;;;;;26.08;14.15;;;-4.90;77.30;;;;;;5049713;28;20056;-62
2024/01/20 01:19:36;;;;;;;30.48;13.68;;;-5.00;77.30;;;;;;5042628;28;20113;-60
2024/01/20 01:22:02;;;;;;;30.58;13.98;;;-5.00;77.60;;;;;;5052537;28;20128;-61
2024/01/20 01:24:28;;;;;;;27.30;13.25;;;-5.00;78.00;;;;;;5047587;28;20494;-61
2024/01/20 01:26:53;;;;;;;33.30;14.13;;;-5.10;77.90;;;;;;5046920;28;20135;-61
2024/01/20 01:29:19;;;;;;;27.02;12.23;;;-5.10;77.80;;;;;;5046361;28;20420;-61
2024/01/20 01:31:44;;;;;;;23.05;12.68;;;-5.10;77.80;;;;;;5040041;28;20041;-60
2024/01/20 01:34:10;;;;;;;28.60;13.43;;;-5.10;78.00;;;;;;5048272;28;20037;-61
2024/01/20 01:36:35;;;;;;;26.88;13.20;;;-5.10;78.00;;;;;;5047588;28;20033;-61
2024/01/20 01:39:01;;;;;;;26.95;12.65;;;-5.20;78.00;;;;;;5051453;28;20033;-62
2024/01/20 01:41:27;;;;;;;25.92;12.23;;;-5.20;78.10;;;;;;5050658;28;20043;-59
2024/01/20 01:43:52;;;;;;;25.80;12.32;;;-5.20;78.30;;;;;;5047764;28;20033;-60
2024/01/20 01:46:18;;;;;;;27.13;12.30;;;-5.10;78.50;;;;;;5043984;28;20420;-62
2024/01/20 01:48:44;;;;;;;23.67;12.20;;;-5.10;78.60;;;;;;5047109;28;20033;-61
2024/01/20 01:51:12;;;;;;;27.15;13.45;;;-5.10;78.30;;;;;;5051280;28;20033;-62
2024/01/20 01:53:39;;;;;;;22.88;13.13;;;-5.10;78.00;;;;;;5047222;28;20508;-62
2024/01/20 01:56:05;;;;;;;24.27;12.68;;;-5.10;77.80;;;;;;5047672;28;20045;-61
2024/01/20 01:58:31;;;;;;;24.00;12.95;;;-5.10;77.70;;;;;;5049883;28;20117;-61
2024/01/20 02:00:56;;;;;;;27.33;13.77;;;-5.20;77.70;;;;;;5045693;28;20120;-61
2024/01/20 02:03:23;;;;;;;27.42;13.93;;;-5.20;78.00;;;;;;5047169;28;20033;-62
2024/01/20 02:05:48;;;;;;;29.05;14.57;;;-5.20;77.90;;;;;;5051152;28;20117;-61
2024/01/20 02:08:14;;;;;;;26.83;14.02;;;-5.20;77.80;;;;;;5046991;28;20496;-62
2024/01/20 02:10:41;;;;;;;28.27;13.93;;;-5.20;77.90;;;;;;5046663;28;20033;-62
2024/01/20 02:13:07;;;;;;;28.35;14.38;;;-5.30;78.00;;;;;;5038343;28;20419;-62
2024/01/20 02:15:35;;;;;;;24.95;13.35;;;-5.30;78.00;;;;;;5044816;28;20036;-61
2024/01/20 02:18:00;;;;;;;26.48;13.43;;;-5.30;78.10;;;;;;5047507;28;20484;-62
2024/01/20 02:20:26;;;;;;;24.88;13.55;;;-5.30;78.30;;;;;;5046804;28;20051;-61
2024/01/20 02:22:51;;;;;;;33.92;15.10;;;-5.30;78.30;;;;;;5048825;28;20492;-62
2024/01/20 02:25:17;;;;;;;30.92;15.07;;;-5.30;78.30;;;;;;5049663;28;20031;-62
2024/01/20 02:27:43;;;;;;;30.17;15.73;;;-5.30;78.10;;;;;;5045799;28;20106;-62
2024/01/20 02:30:09;;;;;;;33.17;16.65;;;-5.30;78.10;;;;;;5045246;28;20160;-61
2024/01/20 02:32:34;;;;;;;32.05;15.68;;;-5.30;77.90;;;;;;5043815;28;20037;-62
2024/01/20 02:35:00;;;;;;;31.02;15.18;;;-5.30;78.60;;;;;;5048901;28;20523;-62
2024/01/20 02:37:26;;;;;;;29.50;14.98;;;-5.30;77.80;;;;;;5060538;28;20041;-62
2024/01/20 02:39:52;;;;;;;28.25;13.57;;;-5.40;77.90;;;;;;5043981;28;20121;-61
2024/01/20 02:42:18;;;;;;;29.33;15.15;;;-5.40;78.10;;;;;;5054082;28;20040;-61
2024/01/20 02:44:43;;;;;;;32.95;14.68;;;-5.40;78.30;;;;;;5047725;28;20033;-61
2024/01/20 02:47:09;;;;;;;31.38;16.27;;;-5.30;78.60;;;;;;5039948;28;20037;-61
2024/01/20 02:49:34;;;;;;;34.42;17.27;;;-5.30;78.80;;;;;;5051532;28;20032;-61
2024/01/20 02:52:00;;;;;;;39.15;17.38;;;-5.30;78.80;;;;;;5049286;28;20033;-61
2024/01/20 02:54:26;;;;;;;32.08;16.35;;;-5.30;78.70;;;;;;5051232;28;20491;-61
2024/01/20 02:56:51;;;;;;;34.22;16.80;;;-5.30;78.80;;;;;;5047288;28;20044;-62
2024/01/20 02:59:17;;;;;;;35.58;15.82;;;-5.30;78.60;;;;;;5052012;28;20049;-61
2024/01/20 03:01:43;;;;;;;30.70;15.90;;;-5.30;78.60;;;;;;5050192;28;20113;-62
2024/01/20 03:04:08;;;;;;;32.28;15.68;;;-5.30;78.60;;;;;;5046881;28;20035;-61
2024/01/20 03:06:34;;;;;;;30.67;15.60;;;-5.30;78.80;;;;;;5051108;28;20045;-62
2024/01/20 03:08:59;;;;;;;32.38;14.80;;;-5.30;78.90;;;;;;5052272;28;20041;-62
2024/01/20 03:11:25;;;;;;;25.85;13.75;;;-5.20;79.10;;;;;;5052098;28;20029;-62
2024/01/20 03:13:51;;;;;;;26.13;13.43;;;-5.20;79.30;;;;;;5050614;28;20047;-62
2024/01/20 03:16:16;;;;;;;27.95;14.93;;;-5.20;79.50;;;;;;5046976;28;20044;-62
2024/01/20 03:18:42;;;;;;;29.48;14.30;;;-5.10;79.80;;;;;;5050696;28;20053;-62
2024/01/20 03:21:08;;;;;;;28.33;14.75;;;-5.10;79.90;;;;;;5049197;28;20057;-62
2024/01/20 03:23:34;;;;;;;30.42;14.77;;;-5.00;80.00;;;;;;5049925;28;20411;-62
2024/01/20 03:26:07;;;;;;;30.75;15.10;;;-5.00;80.20;;;;;;5050466;28;20033;-62
2024/01/20 03:28:33;;;;;;;33.50;16.58;;;-4.90;80.40;;;;;;5050532;28;20064;-62
2024/01/20 03:30:58;;;;;;;33.05;16.00;;;-4.90;80.50;;;;;;5047726;28;20471;-62
2024/01/20 03:33:24;;;;;;;80.28;20.77;;;-4.80;80.70;;;;;;5051113;28;20029;-61
2024/01/20 03:35:49;;;;;;;41.67;18.27;;;-4.80;81.10;;;;;;5050825;28;20022;-61
2024/01/20 03:38:15;;;;;;;43.67;19.23;;;-4.70;81.40;;;;;;5047011;28;20078;-62
2024/01/20 03:40:43;;;;;;;44.30;18.95;;;-4.70;81.70;;;;;;5049775;28;20045;-62
2024/01/20 03:43:09;;;;;;;52.97;19.58;;;-4.60;82.10;;;;;;5045792;28;20031;-62
2024/01/20 03:45:35;;;;;;;90.20;20.85;;;-4.50;82.30;;;;;;5042817;28;20053;-62
2024/01/20 03:48:00;;;;;;;80.22;21.23;;;-4.50;82.40;;;;;;5048059;28;20504;-60
2024/01/20 03:50:26;;;;;;;42.47;19.45;;;-4.40;82.50;;;;;;5053915;28;20116;-62
2024/01/20 03:52:51;;;;;;;57.17;20.90;;;-4.40;82.60;;;;;;5049257;28;20044;-62
2024/01/20 03:55:17;;;;;;;80.05;21.35;;;-4.30;82.90;;;;;;5049932;28;20107;-60
2024/01/20 03:57:43;;;;;;;82.90;21.08;;;-4.30;83.00;;;;;;5048580;28;20402;-62
2024/01/20 04:00:09;;;;;;;54.35;20.63;;;-4.30;83.00;;;;;;5048079;28;20021;-62
2024/01/20 04:02:35;;;;;;;62.30;21.25;;;-4.20;83.20;;;;;;5050445;28;20029;-61
2024/01/20 04:05:00;;;;;;;74.32;22.25;;;-4.20;83.30;;;;;;5049238;28;20040;-61
2024/01/20 04:07:26;;;;;;;69.25;22.30;;;-4.10;83.50;;;;;;5049554;28;20045;-61
2024/01/20 04:09:51;;;;;;;48.80;21.90;;;-4.10;83.60;;;;;;5052036;28;20033;-61
2024/01/20 04:12:18;;;;;;;52.45;20.85;;;-4.00;83.80;;;;;;5047286;28;20033;-60
2024/01/20 04:14:43;;;;;;;50.53;21.45;;;-4.00;84.00;;;;;;5052536;28;20029;-61
2024/01/20 04:17:10;;;;;;;56.72;21.95;;;-3.90;84.20;;;;;;5049256;28;20488;-60
2024/01/20 04:19:35;;;;;;;53.05;21.17;;;-3.90;84.30;;;;;;5049949;28;20518;-60
2024/01/20 04:22:01;;;;;;;64.85;21.77;;;-3.80;84.40;;;;;;5052743;28;20053;-61
2024/01/20 04:24:26;;;;;;;65.07;21.55;;;-3.80;84.40;;;;;;5048873;28;20041;-60
2024/01/20 04:26:52;;;;;;;101.88;23.35;;;-3.70;84.40;;;;;;5049452;28;20108;-62
2024/01/20 04:29:17;;;;;;;50.30;21.83;;;-3.70;84.40;;;;;;5051995;28;20029;-62
2024/01/20 04:31:43;;;;;;;58.20;22.90;;;-3.60;84.50;;;;;;5043433;28;20108;-62
2024/01/20 04:34:09;;;;;;;74.75;23.05;;;-3.60;84.40;;;;;;5047467;28;20079;-61
2024/01/20 04:36:34;;;;;;;88.43;22.45;;;-3.60;84.20;;;;;;5048716;28;20047;-62
2024/01/20 04:39:00;;;;;;;65.93;22.33;;;-3.50;84.10;;;;;;5052310;28;20040;-61
2024/01/20 04:41:25;;;;;;;55.67;22.13;;;-3.50;84.00;;;;;;5051729;28;20508;-60
2024/01/20 04:43:51;;;;;;;59.45;22.00;;;-3.40;84.10;;;;;;5048186;28;20044;-62
2024/01/20 04:46:17;;;;;;;56.05;21.73;;;-3.50;84.00;;;;;;5042672;28;20040;-61
2024/01/20 04:48:43;;;;;;;54.88;21.75;;;-3.40;84.20;;;;;;5047136;28;20029;-61
2024/01/20 04:51:08;;;;;;;63.65;22.65;;;-3.40;84.20;;;;;;5044562;28;20029;-60
2024/01/20 04:53:34;;;;;;;51.70;22.67;;;-3.40;84.40;;;;;;5050923;28;20067;-62
2024/01/20 04:56:03;;;;;;;55.47;21.98;;;-3.40;84.60;;;;;;5048699;28;20043;-60
2024/01/20 04:58:29;;;;;;;56.38;21.90;;;-3.40;84.70;;;;;;5048727;28;20095;-62
2024/01/20 05:00:55;;;;;;;56.08;21.77;;;-3.40;84.60;;;;;;5045475;28;20029;-61
2024/01/20 05:03:21;;;;;;;45.65;19.92;;;-3.30;84.70;;;;;;5045899;28;20116;-61
2024/01/20 05:05:46;;;;;;;51.67;20.63;;;-3.30;84.60;;;;;;5048579;28;20045;-61
2024/01/20 05:08:12;;;;;;;45.65;19.70;;;-3.30;85.50;;;;;;5047130;28;20132;-60
2024/01/20 05:10:37;;;;;;;59.60;20.90;;;-3.20;84.70;;;;;;5053024;28;20408;-61
2024/01/20 05:13:03;;;;;;;89.97;22.30;;;-3.20;84.60;;;;;;5048165;28;20131;-62
2024/01/20 05:15:30;;;;;;;50.70;21.27;;;-3.20;84.40;;;;;;5046727;28;20037;-61
2024/01/20 05:17:55;;;;;;;47.00;19.63;;;-3.20;84.20;;;;;;5048114;28;20192;-61
2024/01/20 05:20:21;;;;;;;48.28;19.63;;;-3.20;84.10;;;;;;5046394;28;20563;-62
2024/01/20 05:22:47;;;;;;;56.55;21.30;;;-3.10;84.20;;;;;;5051549;28;20068;-61
2024/01/20 05:25:13;;;;;;;67.88;20.80;;;-3.10;84.30;;;;;;5047452;28;20025;-62
2024/01/20 05:27:38;;;;;;;61.60;21.20;;;-3.10;84.20;;;;;;5047746;28;20500;-62
2024/01/20 05:30:05;;;;;;;56.35;20.48;;;-3.10;84.20;;;;;;5045584;28;20040;-61
2024/01/20 05:32:30;;;;;;;64.85;21.25;;;-3.10;84.20;;;;;;5041616;28;20036;-61
2024/01/20 05:34:56;;;;;;;83.55;22.20;;;-3.10;84.10;;;;;;5049980;28;20029;-62
2024/01/20 05:37:22;;;;;;;62.65;21.50;;;-3.10;84.00;;;;;;5050611;28;20082;-60
2024/01/20 05:39:47;;;;;;;52.10;22.40;;;-3.10;84.00;;;;;;5047636;28;20404;-61
2024/01/20 05:42:14;;;;;;;57.03;21.58;;;-3.10;84.20;;;;;;5049149;28;20036;-62
2024/01/20 05:44:40;;;;;;;61.90;21.27;;;-3.20;84.20;;;;;;5048187;28;20037;-62
2024/01/20 05:47:05;;;;;;;64.03;21.33;;;-3.20;84.40;;;;;;5042623;28;20055;-59
2024/01/20 05:49:31;;;;;;;69.93;21.13;;;-3.20;84.50;;;;;;5050463;28;20044;-61
2024/01/20 05:51:56;;;;;;;75.90;22.58;;;-3.20;84.20;;;;;;5047508;28;20025;-62
2024/01/20 05:54:22;;;;;;;70.60;20.08;;;-3.20;84.10;;;;;;5048119;28;20421;-60
2024/01/20 05:56:47;;;;;;;82.18;21.05;;;-3.20;84.10;;;;;;5046982;28;20029;-62
2024/01/20 05:59:13;;;;;;;67.50;20.83;;;-3.20;84.00;;;;;;5049384;28;20404;-61
2024/01/20 06:01:38;;;;;;;53.63;21.58;;;-3.20;84.70;;;;;;5043398;28;20025;-63
2024/01/20 06:04:04;;;;;;;57.35;21.50;;;-3.30;83.70;;;;;;5047260;28;20075;-61
2024/01/20 06:06:30;;;;;;;68.50;23.50;;;-3.30;83.60;;;;;;5052493;28;20457;-60
2024/01/20 06:08:56;;;;;;;79.05;21.42;;;-3.30;83.40;;;;;;5048310;28;20137;-62
2024/01/20 06:11:24;;;;;;;67.20;24.48;;;-3.40;83.30;;;;;;5050419;28;20422;-62
2024/01/20 06:13:50;;;;;;;59.00;21.58;;;-3.50;84.20;;;;;;5047243;28;20060;-62
2024/01/20 06:16:16;;;;;;;54.20;22.08;;;-3.50;83.30;;;;;;5046355;28;20496;-61
2024/01/20 06:18:42;;;;;;;60.38;20.13;;;-3.50;83.20;;;;;;5055517;28;20047;-60
2024/01/20 06:21:08;;;;;;;108.55;21.85;;;-3.60;83.20;;;;;;5052525;28;20028;-60
2024/01/20 06:23:34;;;;;;;102.75;21.58;;;-3.70;83.20;;;;;;5048646;28;20029;-61
2024/01/20 06:26:00;;;;;;;64.43;21.58;;;-3.70;83.50;;;;;;5049018;28;20037;-60
2024/01/20 06:28:26;;;;;;;60.22;21.20;;;-3.80;83.40;;;;;;5048800;28;20029;-62
2024/01/20 06:30:52;;;;;;;174.60;24.17;;;-3.80;83.70;;;;;;5049032;28;20032;-60
2024/01/20 06:33:18;;;;;;;62.28;20.75;;;-3.80;83.90;;;;;;5050782;28;20032;-61
2024/01/20 06:35:44;;;;;;;51.90;18.13;;;-3.90;83.90;;;;;;5048809;28;20519;-61
2024/01/20 06:38:09;;;;;;;83.45;18.88;;;-3.90;84.00;;;;;;5052399;28;20067;-62
2024/01/20 06:40:35;;;;;;;85.07;21.23;;;-3.90;84.00;;;;;;5048825;28;20397;-62
2024/01/20 06:43:01;;;;;;;71.28;20.52;;;-3.90;84.00;;;;;;5054510;28;20039;-62
2024/01/20 06:45:33;;;;;;;60.47;20.05;;;-3.90;84.80;;;;;;5049669;28;20052;-61
2024/01/20 06:47:58;;;;;;;62.88;20.05;;;-3.90;83.90;;;;;;5045483;28;20479;-61
2024/01/20 06:50:24;;;;;;;134.40;22.50;;;-3.90;84.00;;;;;;5050065;28;20040;-60
2024/01/20 06:52:50;;;;;;;58.92;20.15;;;-3.90;84.00;;;;;;5049035;28;20507;-61
2024/01/20 06:55:15;;;;;;;61.00;19.08;;;-3.90;84.00;;;;;;5053623;28;20132;-62
2024/01/20 06:57:41;;;;;;;53.22;19.30;;;-3.90;84.00;;;;;;5054937;28;20040;-61
2024/01/20 07:00:08;;;;;;;49.53;18.95;;;-3.90;84.00;;;;;;5047771;28;20025;-61
2024/01/20 07:02:34;;;;;;;53.20;19.10;;;-3.90;84.00;;;;;;5054571;28;20562;-62
2024/01/20 07:05:00;;;;;;;72.07;18.63;;;-3.90;84.00;;;;;;5049570;28;20037;-60
2024/01/20 07:07:26;;;;;;;87.10;20.98;;;-3.90;84.10;;;;;;5051647;28;20025;-61
2024/01/20 07:09:51;;;;;;;86.10;21.38;;;-3.90;84.20;;;;;;5055601;28;20049;-61
2024/01/20 07:12:17;;;;;;;82.97;21.02;;;-3.90;84.20;;;;;;5049476;28;20059;-62
2024/01/20 07:14:43;;;;;;;59.85;19.00;;;-3.90;84.00;;;;;;5054923;28;20452;-60
2024/01/20 07:17:09;;;;;;;59.55;18.98;;;-3.90;83.90;;;;;;5052738;28;20028;-62
2024/01/20 07:19:34;;;;;;;100.85;20.83;;;-3.90;83.80;;;;;;5038810;28;20207;-61
2024/01/20 07:22:00;;;;;;;49.65;19.30;;;-3.90;84.00;;;;;;5027225;28;20033;-60
2024/01/20 07:24:27;;;;;;;75.78;20.08;;;-3.90;84.20;;;;;;5040914;28;20040;-60
2024/01/20 07:26:53;;;;;;;86.53;20.27;;;-3.90;84.20;;;;;;5043556;28;20048;-62
2024/01/20 07:29:19;;;;;;;85.63;20.05;;;-3.90;84.20;;;;;;5043323;28;20378;-60
2024/01/20 07:31:45;;;;;;;61.70;19.77;;;-4.00;84.20;;;;;;5043801;28;20033;-58
2024/01/20 07:34:10;;;;;;;75.72;19.85;;;-4.00;84.30;;;;;;5031908;28;20068;-62
2024/01/20 07:36:37;;;;;;;84.97;20.00;;;-4.00;84.40;;;;;;5041105;28;20037;-60
2024/01/20 07:39:04;;;;;;;49.67;19.10;;;-4.00;84.40;;;;;;5043063;28;20041;-60
2024/01/20 07:41:30;;;;;;;104.95;20.75;;;-4.00;84.40;;;;;;5043708;28;20116;-62
2024/01/20 07:43:55;;;;;;;95.13;18.50;;;-4.00;84.60;;;;;;5046349;28;20098;-60
2024/01/20 07:46:21;;;;;;;69.20;19.02;;;-3.90;84.60;;;;;;5046466;28;20510;-62
2024/01/20 07:48:47;;;;;;;51.20;19.63;;;-4.00;84.60;;;;;;5037334;28;20497;-61
2024/01/20 07:51:13;;;;;;;65.05;18.60;;;-4.00;84.50;;;;;;5030094;28;20452;-61
2024/01/20 07:53:38;;;;;;;76.70;20.05;;;-3.90;84.70;;;;;;5038052;28;20048;-61
2024/01/20 07:56:05;;;;;;;37.85;17.25;;;-3.90;84.70;;;;;;5033614;28;20404;-62
2024/01/20 07:58:30;;;;;;;61.42;18.40;;;-3.90;84.70;;;;;;5036353;28;20157;-61
2024/01/20 08:00:56;;;;;;;60.45;17.15;;;-3.80;84.80;;;;;;5035927;28;20196;-61
2024/01/20 08:03:21;;;;;;;81.15;18.30;;;-3.80;84.60;;;;;;5043738;28;22511;-61
2024/01/20 08:05:47;;;;;;;93.63;19.45;;;-3.80;84.40;;;;;;5039939;28;20041;-61
2024/01/20 08:08:12;;;;;;;125.55;18.77;;;-3.80;84.20;;;;;;5035184;28;20101;-61
2024/01/20 08:10:38;;;;;;;135.88;20.33;;;-3.80;84.00;;;;;;5039584;28;20029;-61
2024/01/20 08:13:04;;;;;;;118.30;20.73;;;-3.80;83.60;;;;;;5042360;28;20127;-63
2024/01/20 08:15:29;;;;;;;199.30;23.48;;;-3.90;83.20;;;;;;5034745;28;20025;-61
2024/01/20 08:17:55;;;;;;;57.10;18.05;;;-4.00;83.00;;;;;;5033057;28;20041;-60
2024/01/20 08:20:20;;;;;;;118.85;19.27;;;-4.00;83.00;;;;;;5040398;28;20747;-62
2024/01/20 08:22:46;;;;;;;69.93;18.80;;;-4.10;83.40;;;;;;5037812;28;20110;-62
2024/01/20 08:25:13;;;;;;;50.83;18.95;;;-4.10;84.00;;;;;;5038786;28;20044;-61
2024/01/20 08:27:38;;;;;;;43.40;17.60;;;-4.10;84.50;;;;;;5039515;28;20057;-62
2024/01/20 08:30:05;;;;;;;52.55;18.73;;;-4.10;84.90;;;;;;5042928;28;20052;-61
2024/01/20 08:32:30;;;;;;;49.15;19.17;;;-4.10;85.10;;;;;;5038381;28;20059;-59
2024/01/20 08:34:56;;;;;;;61.67;18.73;;;-4.00;85.40;;;;;;5044315;28;20493;-61
2024/01/20 08:37:21;;;;;;;51.17;19.30;;;-4.00;85.40;;;;;;5039620;28;20029;-61
2024/01/20 08:39:47;;;;;;;41.83;18.25;;;-3.80;85.60;;;;;;5034548;28;20567;-60
2024/01/20 08:42:12;;;;;;;45.38;18.48;;;-3.80;85.70;;;;;;5031687;28;20033;-59
2024/01/20 08:44:38;;;;;;;53.58;19.15;;;-3.80;85.70;;;;;;5020021;28;20462;-60
2024/01/20 08:47:04;;;;;;;47.53;18.70;;;-3.70;85.60;;;;;;5035205;28;20091;-62
2024/01/20 08:49:29;;;;;;;47.30;17.63;;;-3.70;85.50;;;;;;5027944;28;20033;-62
2024/01/20 08:51:55;;;;;;;90.35;17.50;;;-3.60;85.60;;;;;;5037412;28;20128;-61
2024/01/20 08:54:20;;;;;;;47.78;17.25;;;-3.60;85.40;;;;;;5042092;28;20043;-62
2024/01/20 08:56:47;;;;;;;60.22;18.25;;;-3.50;85.00;;;;;;5036871;28;20057;-61
2024/01/20 08:59:14;;;;;;;47.45;18.40;;;-3.50;84.60;;;;;;5035141;28;20045;-61
2024/01/20 09:01:40;;;;;;;70.13;18.55;;;-3.40;84.60;;;;;;5035517;28;20091;-61
2024/01/20 09:04:05;;;;;;;65.75;21.15;;;-3.40;84.60;;;;;;5041860;28;20451;-62
2024/01/20 09:06:31;;;;;;;54.53;21.60;;;-3.40;84.60;;;;;;5037136;28;20025;-61
2024/01/20 09:08:57;;;;;;;58.28;21.45;;;-3.40;84.50;;;;;;5039171;28;20408;-61
2024/01/20 09:11:22;;;;;;;42.20;17.80;;;-3.40;84.50;;;;;;5039648;28;20083;-61
2024/01/20 09:13:48;;;;;;;45.95;17.60;;;-3.40;84.50;;;;;;5038749;28;20040;-62
2024/01/20 09:16:13;;;;;;;65.32;19.85;;;-3.30;84.60;;;;;;5037927;28;20592;-62
2024/01/20 09:18:39;;;;;;;53.67;18.15;;;-3.40;84.60;;;;;;5038038;28;20041;-61
2024/01/20 09:21:11;;;;;;;39.58;17.17;;;-3.40;84.40;;;;;;5039245;28;20035;-63
2024/01/20 09:23:37;;;;;;;45.50;18.08;;;-3.40;84.40;;;;;;5041126;28;20033;-62
2024/01/20 09:26:02;;;;;;;38.72;17.48;;;-3.30;84.50;;;;;;5042014;28;20029;-61
2024/01/20 09:28:28;;;;;;;39.53;17.67;;;-3.30;84.70;;;;;;5041112;28;20110;-61
2024/01/20 09:30:54;;;;;;;42.10;18.08;;;-3.30;84.90;;;;;;5029997;28;20459;-61
2024/01/20 09:33:19;;;;;;;39.72;18.13;;;-3.30;84.90;;;;;;5031190;28;20069;-62
2024/01/20 09:35:45;;;;;;;63.53;18.95;;;-3.20;85.10;;;;;;5037678;28;20029;-60
2024/01/20 09:38:10;;;;;;;45.00;19.42;;;-3.20;84.60;;;;;;5040171;28;20519;-61
2024/01/20 09:40:36;;;;;;;45.53;19.98;;;-3.20;84.20;;;;;;5039739;28;20042;-61
2024/01/20 09:43:04;;;;;;;57.13;21.65;;;-3.20;84.30;;;;;;5036882;28;20036;-60
2024/01/20 09:45:30;;;;;;;79.78;23.15;;;-3.20;84.70;;;;;;5035216;28;20034;-62
2024/01/20 09:47:56;;;;;;;49.92;21.80;;;-3.20;84.90;;;;;;5038994;28;20028;-61
2024/01/20 09:50:21;;;;;;;49.08;19.85;;;-3.20;84.80;;;;;;5035769;28;20033;-61
2024/01/20 09:53:00;;;;;;;46.03;19.10;;;-3.20;84.60;;;;;;5040390;28;20120;-60
2024/01/20 09:55:27;;;;;;;40.50;19.45;;;-3.20;84.90;;;;;;5039993;28;20037;-61
2024/01/20 09:57:53;;;;;;;45.40;20.98;;;-3.20;85.00;;;;;;5030916;28;20035;-61
2024/01/20 10:00:23;;;;;;;44.33;20.10;;;-3.20;85.30;;;;;;5035566;28;20068;-62
2024/01/20 10:02:49;;;;;;;54.40;22.10;;;-3.10;85.60;;;;;;5046365;28;20175;-62
2024/01/20 10:05:15;;;;;;;56.60;22.77;;;-3.10;85.40;;;;;;5043840;28;20103;-61
2024/01/20 10:07:42;;;;;;;45.28;21.42;;;-3.10;85.30;;;;;;5043240;28;20451;-62
2024/01/20 10:10:09;;;;;;;51.13;21.90;;;-3.10;85.10;;;;;;5044326;28;20025;-61
2024/01/20 10:12:36;;;;;;;44.20;21.17;;;-3.00;85.20;;;;;;5040553;28;20060;-60
2024/01/20 10:15:01;;;;;;;50.10;20.92;;;-3.00;84.80;;;;;;5043628;28;20048;-60
2024/01/20 10:17:27;;;;;;;46.90;20.23;;;-3.10;84.70;;;;;;5041102;28;20041;-61
2024/01/20 10:19:53;;;;;;;48.15;20.83;;;-3.10;84.70;;;;;;5029440;28;20034;-60
2024/01/20 10:22:19;;;;;;;55.35;23.00;;;-3.00;85.20;;;;;;5036713;28;20029;-62
2024/01/20 10:24:52;;;;;;;46.92;20.63;;;-3.00;85.40;;;;;;5042205;28;20049;-61
2024/01/20 10:27:19;;;;;;;47.42;20.25;;;-3.00;85.80;;;;;;5042546;28;20041;-60
2024/01/20 10:29:46;;;;;;;46.47;20.00;;;-2.90;86.10;;;;;;5038836;28;20083;-62
2024/01/20 10:32:12;;;;;;;45.92;21.02;;;-2.80;86.30;;;;;;5040443;28;20041;-63
2024/01/20 10:34:38;;;;;;;45.47;19.38;;;-2.70;86.30;;;;;;5040371;28;20037;-61
2024/01/20 10:37:12;;;;;;;47.33;19.63;;;-2.70;86.30;;;;;;5036577;28;20039;-62
2024/01/20 10:39:43;;;;;;;40.95;18.88;;;-2.60;86.40;;;;;;5042186;28;20440;-59
2024/01/20 10:42:19;;;;;;;38.22;17.83;;;-2.50;86.10;;;;;;5041715;28;20032;-62
2024/01/20 10:45:00;;;;;;;47.33;20.33;;;-2.40;86.10;;;;;;5042417;28;20120;-61
2024/01/20 10:47:35;;;;;;;43.83;19.25;;;-2.40;85.70;;;;;;5035161;28;20131;-61
2024/01/20 10:50:04;;;;;;;41.75;18.55;;;-2.30;85.40;;;;;;5036826;28;21085;-61
2024/01/20 10:52:34;;;;;;;42.20;19.17;;;-2.30;85.20;;;;;;5031685;28;20029;-60
2024/01/20 10:55:01;;;;;;;46.30;18.63;;;-2.20;85.30;;;;;;5053641;28;20040;-61
2024/01/20 10:57:27;;;;;;;43.75;19.48;;;-2.20;85.10;;;;;;5034455;28;20560;-61
2024/01/20 10:59:55;;;;;;;43.72;19.02;;;-2.10;85.10;;;;;;5035601;28;20047;-61
2024/01/20 11:02:22;;;;;;;43.08;19.92;;;-2.10;84.90;;;;;;5039039;28;20036;-60
2024/01/20 11:04:48;;;;;;;44.55;18.73;;;-2.10;85.10;;;;;;5046612;28;20033;-62
2024/01/20 11:07:23;;;;;;;40.20;18.63;;;-2.00;85.10;;;;;;5042083;28;20041;-60
2024/01/20 11:09:59;;;;;;;42.53;19.15;;;-2.00;84.90;;;;;;5038807;28;20133;-61
2024/01/20 11:12:26;;;;;;;44.97;19.55;;;-1.90;85.80;;;;;;5046314;28;20135;-60
2024/01/20 11:14:55;;;;;;;41.95;18.92;;;-1.90;84.90;;;;;;5040504;28;20048;-61
2024/01/20 11:17:22;;;;;;;43.55;18.63;;;-1.80;84.90;;;;;;5044989;28;20083;-61
2024/01/20 11:19:48;;;;;;;38.67;18.73;;;-1.80;84.90;;;;;;5047254;28;20026;-60
2024/01/20 11:22:33;;;;;;;44.58;18.98;;;-1.70;84.90;;;;;;5046754;28;20033;-61
2024/01/20 11:25:04;;;;;;;38.13;17.40;;;-1.70;84.90;;;;;;5044361;28;20045;-62
2024/01/20 11:27:30;;;;;;;38.47;18.27;;;-1.60;84.90;;;;;;5042960;28;20056;-61
2024/01/20 11:30:08;;;;;;;39.15;17.95;;;-1.60;84.80;;;;;;5046269;28;20083;-62
2024/01/20 11:32:34;;;;;;;37.17;17.02;;;-1.60;84.90;;;;;;5045850;28;20029;-60
2024/01/20 11:35:00;;;;;;;36.70;17.38;;;-1.50;84.80;;;;;;5047560;28;20404;-62
2024/01/20 11:37:27;;;;;;;36.75;16.75;;;-1.50;84.70;;;;;;5044550;28;20106;-61
2024/01/20 11:40:08;;;;;;;36.92;16.67;;;-1.40;84.60;;;;;;5048528;28;20029;-61
2024/01/20 11:42:35;;;;;;;38.40;17.42;;;-1.40;84.30;;;;;;5045163;28;20029;-60
2024/01/20 11:45:01;;;;;;;38.13;17.70;;;-1.40;85.00;;;;;;5045543;28;20029;-62
2024/01/20 11:47:27;;;;;;;39.30;17.42;;;-1.30;84.30;;;;;;5043744;28;20056;-60
2024/01/20 11:49:54;;;;;;;36.92;16.90;;;-1.30;84.30;;;;;;5047269;28;20037;-60
2024/01/20 11:52:21;;;;;;;42.53;19.35;;;-1.20;84.50;;;;;;5047922;28;20597;-61
2024/01/20 11:54:46;;;;;;;43.45;19.38;;;-1.20;84.60;;;;;;5043744;28;20033;-60
2024/01/20 11:57:38;;;;;;;43.75;19.23;;;-1.10;84.40;;;;;;5043050;28;20385;-60
2024/01/20 12:00:05;;;;;;;38.85;18.58;;;-1.20;83.90;;;;;;5039755;28;20124;-60
2024/01/20 12:02:31;;;;;;;41.15;18.38;;;-1.10;83.90;;;;;;5044948;28;20079;-60
2024/01/20 12:04:56;;;;;;;43.03;18.38;;;-1.10;84.10;;;;;;5046164;28;20033;-60
2024/01/20 12:07:23;;;;;;;43.30;18.42;;;-1.10;84.20;;;;;;5045511;28;20044;-60
2024/01/20 12:09:48;;;;;;;41.92;19.08;;;-1.10;84.40;;;;;;5042863;28;20032;-61
2024/01/20 12:12:15;;;;;;;41.90;19.10;;;-1.10;84.40;;;;;;5045443;28;20033;-61
2024/01/20 12:14:42;;;;;;;46.67;21.10;;;-1.00;84.70;;;;;;5042447;28;20404;-60
2024/01/20 12:17:08;;;;;;;43.35;19.55;;;-1.00;84.60;;;;;;5043761;28;20446;-60
2024/01/20 12:19:38;;;;;;;40.38;18.98;;;-0.90;84.70;;;;;;5046017;28;20166;-59
2024/01/20 12:22:05;;;;;;;40.15;18.88;;;-0.80;84.70;;;;;;5041602;28;20033;-60